Time;durP1;ratioP1;P1;durP2;ratioP2;P2;SDS_P1;SDS_P2;PMS_P1;PMS_P2;Temp;Humidity;BMP_temperature;BMP_pressure;BME280_temperature;BME280_humidity;BME280_pressure;Samples;Min_cycle;Max_cycle;Signal;HPM_P1;HPM_P2
2022/10/30 00:01:00;;;;;;;17.63;6.25;;;16.80;99.90;;;;;;5049758;28;20511;-84
2022/10/30 00:03:26;;;;;;;19.08;8.52;;;16.80;99.90;;;;;;5031289;28;20037;-84
2022/10/30 00:05:52;;;;;;;16.95;8.32;;;16.80;99.90;;;;;;5032684;28;20072;-84
2022/10/30 00:08:19;;;;;;;21.65;10.15;;;16.80;99.90;;;;;;5031731;28;20037;-84
2022/10/30 00:10:45;;;;;;;17.20;8.52;;;16.80;99.90;;;;;;5049153;28;20037;-84
2022/10/30 00:13:12;;;;;;;15.05;6.18;;;16.80;99.90;;;;;;5031543;28;20121;-84
2022/10/30 00:15:37;;;;;;;19.77;9.63;;;16.70;99.90;;;;;;5049704;28;20084;-84
2022/10/30 00:18:03;;;;;;;16.95;9.05;;;16.70;99.90;;;;;;5048100;28;20501;-84
2022/10/30 00:20:29;;;;;;;16.73;9.27;;;16.70;99.90;;;;;;5049671;28;20078;-84
2022/10/30 00:22:54;;;;;;;17.17;9.23;;;16.70;99.90;;;;;;5032429;28;20505;-84
2022/10/30 00:25:20;;;;;;;14.23;6.35;;;16.70;99.90;;;;;;5030698;28;20124;-84
2022/10/30 00:27:46;;;;;;;18.08;9.18;;;16.60;99.90;;;;;;5049803;28;20455;-84
2022/10/30 00:30:12;;;;;;;19.15;6.85;;;16.60;99.90;;;;;;5048289;28;20685;-84
2022/10/30 00:32:37;;;;;;;21.42;9.52;;;16.50;99.90;;;;;;5031378;28;20052;-84
2022/10/30 00:35:03;;;;;;;18.63;9.80;;;16.50;99.90;;;;;;5032757;28;20037;-84
2022/10/30 00:37:28;;;;;;;17.70;6.43;;;16.50;99.90;;;;;;5048148;28;20048;-84
2022/10/30 00:39:54;;;;;;;18.17;9.30;;;16.40;99.90;;;;;;5032914;28;20087;-84
2022/10/30 00:42:20;;;;;;;20.27;10.13;;;16.40;99.90;;;;;;5031635;28;20052;-84
2022/10/30 00:44:51;;;;;;;13.02;5.97;;;16.40;99.90;;;;;;5049130;28;20052;-84
2022/10/30 00:47:24;;;;;;;16.88;9.55;;;16.30;99.90;;;;;;5031359;28;20041;-84
2022/10/30 00:49:52;;;;;;;;;;;16.30;99.90;;;;;;5049842;28;20448;-84
2022/10/30 00:52:20;;;;;;;18.73;9.60;;;16.30;99.90;;;;;;5048691;28;19918;-84
2022/10/30 00:54:46;;;;;;;20.70;10.32;;;16.30;99.90;;;;;;5048233;28;20792;-84
2022/10/30 00:57:12;;;;;;;16.80;9.00;;;16.30;99.90;;;;;;5049249;28;20041;-84
2022/10/30 00:59:38;;;;;;;19.13;9.57;;;16.30;99.90;;;;;;5031462;28;20083;-84
2022/10/30 01:02:05;;;;;;;20.20;9.82;;;16.30;99.90;;;;;;5035998;28;20456;-84
2022/10/30 01:04:35;;;;;;;19.70;9.82;;;16.30;99.90;;;;;;5051702;28;20045;-84
2022/10/30 01:07:09;;;;;;;15.50;9.13;;;16.30;99.90;;;;;;5052296;28;20036;-84
2022/10/30 01:09:36;;;;;;;18.30;9.40;;;16.30;99.90;;;;;;5051184;28;20180;-84
2022/10/30 01:12:02;;;;;;;18.58;9.57;;;16.30;99.90;;;;;;5035599;28;20051;-84
2022/10/30 01:14:29;;;;;;;19.80;9.68;;;16.30;99.90;;;;;;5051867;28;20124;-84
2022/10/30 01:17:24;;;;;;;16.67;9.30;;;16.30;99.90;;;;;;5035288;28;20548;-84
2022/10/30 01:20:18;;;;;;;13.20;5.57;;;16.30;99.90;;;;;;5052015;28;20049;-84
2022/10/30 01:22:58;;;;;;;16.45;6.30;;;16.20;99.90;;;;;;5015253;28;20034;-84
2022/10/30 01:25:37;;;;;;;17.25;9.43;;;16.10;99.90;;;;;;5033329;28;20406;-84
2022/10/30 01:28:33;;;;;;;18.13;9.57;;;16.10;99.90;;;;;;5031764;28;20045;-84
2022/10/30 01:31:28;;;;;;;17.40;9.57;;;16.20;99.90;;;;;;5035211;28;20040;-84
2022/10/30 01:34:15;;;;;;;19.02;10.15;;;16.20;99.90;;;;;;5050472;28;20041;-84
2022/10/30 01:36:48;;;;;;;19.58;9.88;;;16.10;99.90;;;;;;5035805;28;20037;-84
2022/10/30 01:39:21;;;;;;;18.65;9.70;;;16.10;99.90;;;;;;5050915;28;20037;-84
2022/10/30 01:41:47;;;;;;;17.98;10.02;;;16.10;99.90;;;;;;5056848;28;20032;-84
2022/10/30 01:44:17;;;;;;;17.75;6.88;;;16.10;99.90;;;;;;5056937;28;20055;-84
2022/10/30 01:47:14;;;;;;;17.52;9.80;;;16.10;99.90;;;;;;5060881;28;20085;-84
2022/10/30 01:50:06;;;;;;;20.75;10.32;;;16.10;99.90;;;;;;5057152;28;20181;-84
2022/10/30 01:52:40;;;;;;;19.73;9.48;;;16.10;99.90;;;;;;5060578;28;20037;-84
2022/10/30 01:55:36;;;;;;;15.65;7.97;;;16.10;99.90;;;;;;5031430;28;20046;-84
2022/10/30 01:58:18;;;;;;;17.88;9.68;;;16.00;99.90;;;;;;5027275;28;20033;-84
2022/10/30 02:00:46;;;;;;;20.67;9.93;;;16.00;99.90;;;;;;5051867;28;20041;-84
2022/10/30 02:03:12;;;;;;;21.15;10.20;;;16.00;99.90;;;;;;5049988;28;20044;-84
2022/10/30 02:05:42;;;;;;;22.27;10.23;;;16.00;99.90;;;;;;5051300;28;20559;-84
2022/10/30 02:08:07;;;;;;;16.92;9.15;;;16.00;99.90;;;;;;5050210;28;20037;-84
2022/10/30 02:10:35;;;;;;;18.20;6.95;;;16.00;99.90;;;;;;5051049;28;20532;-84
2022/10/30 02:13:01;;;;;;;17.20;9.25;;;15.90;99.90;;;;;;5049636;28;20102;-84
2022/10/30 02:15:27;;;;;;;18.50;9.68;;;15.90;99.90;;;;;;5033216;28;20488;-83
2022/10/30 02:17:54;;;;;;;20.65;10.32;;;15.90;99.90;;;;;;5034503;28;20033;-83
2022/10/30 02:20:20;;;;;;;15.73;9.65;;;15.90;99.90;;;;;;5033661;28;20052;-83
2022/10/30 02:22:46;;;;;;;14.52;6.30;;;15.90;99.90;;;;;;5039694;28;20028;-83
2022/10/30 02:25:13;;;;;;;22.23;9.95;;;15.80;99.90;;;;;;5059226;28;20067;-83
2022/10/30 02:27:38;;;;;;;19.15;9.52;;;15.80;99.90;;;;;;5059105;28;20032;-83
2022/10/30 02:30:04;;;;;;;14.80;7.03;;;15.80;99.90;;;;;;5040033;28;20040;-83
2022/10/30 02:32:30;;;;;;;17.27;9.82;;;15.70;99.90;;;;;;5036708;28;20052;-83
2022/10/30 02:34:56;;;;;;;16.70;9.20;;;15.70;99.90;;;;;;5050960;28;20041;-83
2022/10/30 02:37:23;;;;;;;18.65;9.57;;;15.80;99.90;;;;;;5049743;28;20638;-83
2022/10/30 02:39:49;;;;;;;15.05;6.82;;;15.80;99.90;;;;;;5034466;28;20502;-83
2022/10/30 02:42:14;;;;;;;19.85;10.20;;;15.70;99.90;;;;;;5050195;28;20040;-84
2022/10/30 02:44:40;;;;;;;20.92;9.98;;;15.70;99.90;;;;;;5050172;28;20044;-83
2022/10/30 02:47:05;;;;;;;18.67;9.63;;;15.70;99.90;;;;;;5050369;28;20044;-84
2022/10/30 02:49:31;;;;;;;17.52;7.35;;;15.70;99.90;;;;;;5033081;28;20040;-84
2022/10/30 02:51:56;;;;;;;20.55;10.30;;;15.60;99.90;;;;;;5050500;28;20051;-83
2022/10/30 02:54:22;;;;;;;16.13;8.98;;;15.60;99.90;;;;;;5049617;28;20037;-84
2022/10/30 02:56:47;;;;;;;17.83;9.77;;;15.60;99.90;;;;;;5050102;28;20498;-83
2022/10/30 02:59:13;;;;;;;16.58;7.22;;;15.60;99.90;;;;;;5034025;28;20044;-84
2022/10/30 03:01:38;;;;;;;17.80;10.02;;;15.60;99.90;;;;;;5033007;28;20136;-83
2022/10/30 03:04:04;;;;;;;17.20;9.60;;;15.60;99.90;;;;;;5049850;28;20494;-83
2022/10/30 03:06:30;;;;;;;18.67;10.25;;;15.60;99.90;;;;;;5049331;28;20395;-83
2022/10/30 03:08:55;;;;;;;18.30;9.82;;;15.60;99.90;;;;;;5049904;28;20032;-83
2022/10/30 03:11:21;;;;;;;18.63;9.93;;;15.60;99.90;;;;;;5049616;28;20045;-83
2022/10/30 03:13:47;;;;;;;20.58;9.90;;;15.60;99.90;;;;;;5031835;28;20045;-83
2022/10/30 03:16:16;;;;;;;20.42;10.25;;;15.60;99.90;;;;;;5050315;28;20041;-84
2022/10/30 03:18:42;;;;;;;15.65;9.85;;;15.60;99.90;;;;;;5032806;28;20047;-84
2022/10/30 03:21:10;;;;;;;12.60;6.43;;;15.50;99.90;;;;;;5049943;28;20036;-83
2022/10/30 03:23:36;;;;;;;17.85;9.90;;;15.50;99.90;;;;;;5031875;28;20174;-83
2022/10/30 03:26:02;;;;;;;17.63;10.05;;;15.40;99.90;;;;;;5032578;28;20727;-83
2022/10/30 03:28:29;;;;;;;15.18;7.40;;;15.40;99.90;;;;;;5049332;28;20037;-83
2022/10/30 03:31:00;;;;;;;21.65;10.40;;;15.40;99.90;;;;;;5049023;28;20041;-83
2022/10/30 03:33:25;;;;;;;20.30;9.90;;;15.40;99.90;;;;;;5032327;28;20518;-83
2022/10/30 03:35:51;;;;;;;15.85;9.32;;;15.40;99.90;;;;;;5048615;28;20091;-83
2022/10/30 03:38:16;;;;;;;17.65;9.57;;;15.40;99.90;;;;;;5048787;28;20064;-83
2022/10/30 03:40:42;;;;;;;15.25;6.32;;;15.40;99.90;;;;;;5032190;28;20067;-83
2022/10/30 03:43:07;;;;;;;16.80;9.90;;;15.40;99.90;;;;;;5049580;28;20605;-83
2022/10/30 03:45:33;;;;;;;17.75;9.88;;;15.40;99.90;;;;;;5049567;28;20045;-83
2022/10/30 03:48:01;;;;;;;18.90;10.25;;;15.40;99.90;;;;;;5048545;28;20549;-83
2022/10/30 03:50:26;;;;;;;17.08;6.30;;;15.40;99.90;;;;;;5049974;28;20045;-83
2022/10/30 03:52:56;;;;;;;16.88;10.35;;;15.40;99.90;;;;;;5031855;28;20402;-83
2022/10/30 03:55:22;;;;;;;22.65;9.38;;;15.40;99.90;;;;;;5049469;28;20048;-84
2022/10/30 03:57:48;;;;;;;17.45;10.50;;;15.40;99.90;;;;;;5032900;28;20037;-83
2022/10/30 04:00:14;;;;;;;16.13;7.57;;;15.40;99.90;;;;;;5049287;28;20398;-83
2022/10/30 04:02:51;;;;;;;18.67;10.10;;;15.40;99.90;;;;;;5032920;28;20101;-83
2022/10/30 04:05:22;;;;;;;18.23;10.63;;;15.40;99.90;;;;;;5032438;28;20037;-83
2022/10/30 04:07:47;;;;;;;19.38;9.88;;;15.40;99.90;;;;;;5049004;28;20448;-83
2022/10/30 04:10:13;;;;;;;20.90;9.88;;;15.30;99.90;;;;;;5033194;28;20497;-83
2022/10/30 04:12:39;;;;;;;13.55;6.45;;;15.40;99.90;;;;;;5031370;28;20044;-83
2022/10/30 04:15:07;;;;;;;15.43;6.18;;;15.30;99.90;;;;;;5032736;28;20120;-83
2022/10/30 04:17:33;;;;;;;17.10;10.63;;;15.20;99.90;;;;;;5047487;28;20040;-84
2022/10/30 04:19:59;;;;;;;18.55;10.15;;;15.20;99.90;;;;;;5048734;28;20581;-83
2022/10/30 04:22:24;;;;;;;17.35;6.57;;;15.30;99.90;;;;;;5031953;28;20179;-83
2022/10/30 04:24:50;;;;;;;19.85;10.18;;;15.20;99.90;;;;;;5032259;28;20049;-83
2022/10/30 04:27:16;;;;;;;16.92;9.93;;;15.20;99.90;;;;;;5048543;28;20533;-83
2022/10/30 04:29:42;;;;;;;15.73;6.97;;;15.20;99.90;;;;;;5032016;28;20052;-83
2022/10/30 04:32:08;;;;;;;17.83;10.18;;;15.10;99.90;;;;;;5049100;28;20040;-83
2022/10/30 04:34:34;;;;;;;13.07;6.45;;;15.10;99.90;;;;;;5049158;28;20509;-83
2022/10/30 04:36:59;;;;;;;21.15;10.23;;;15.00;99.90;;;;;;5051905;28;20094;-83
2022/10/30 04:39:25;;;;;;;19.30;10.98;;;15.00;99.90;;;;;;5052653;28;20040;-83
2022/10/30 04:41:51;;;;;;;17.42;10.20;;;15.10;99.90;;;;;;5036534;28;20493;-83
2022/10/30 04:44:16;;;;;;;18.15;10.25;;;15.10;99.90;;;;;;5051155;28;20040;-84
2022/10/30 04:46:42;;;;;;;19.65;7.30;;;15.10;99.90;;;;;;5036152;28;20618;-83
2022/10/30 04:49:08;;;;;;;16.85;7.40;;;15.00;99.90;;;;;;5035829;28;20036;-83
2022/10/30 04:51:33;;;;;;;17.75;10.43;;;14.90;99.90;;;;;;5052809;28;20127;-83
2022/10/30 04:53:59;;;;;;;19.92;11.05;;;15.00;99.90;;;;;;5052558;28;20037;-84
2022/10/30 04:56:24;;;;;;;17.90;10.90;;;15.00;99.90;;;;;;5035545;28;20032;-83
2022/10/30 04:58:51;;;;;;;17.38;7.70;;;15.00;99.90;;;;;;5051963;28;20037;-83
2022/10/30 05:01:16;;;;;;;16.27;6.93;;;15.00;99.90;;;;;;5052585;28;20040;-83
2022/10/30 05:03:42;;;;;;;19.23;8.05;;;14.90;99.90;;;;;;5053565;28;20087;-83
2022/10/30 05:06:21;;;;;;;21.98;10.82;;;14.90;99.90;;;;;;5052717;28;20043;-83
2022/10/30 05:08:46;;;;;;;20.20;10.52;;;14.90;99.90;;;;;;5051460;28;20086;-83
2022/10/30 05:11:12;;;;;;;20.35;11.00;;;14.90;99.90;;;;;;5052728;28;20638;-83
2022/10/30 05:13:37;;;;;;;16.58;10.07;;;15.00;99.90;;;;;;5051951;28;20032;-83
2022/10/30 05:16:03;;;;;;;16.25;7.05;;;15.00;99.90;;;;;;5051424;28;20037;-83
2022/10/30 05:18:29;;;;;;;17.98;10.93;;;14.90;99.90;;;;;;5051229;28;20033;-83
2022/10/30 05:20:54;;;;;;;18.65;10.40;;;14.90;99.90;;;;;;5051889;28;20398;-83
2022/10/30 05:23:20;;;;;;;19.42;6.68;;;15.00;99.90;;;;;;5051932;28;20521;-83
2022/10/30 05:25:45;;;;;;;16.52;6.63;;;14.90;99.90;;;;;;5034708;28;20101;-83
2022/10/30 05:28:11;;;;;;;24.15;11.15;;;14.80;99.90;;;;;;5035696;28;20048;-83
2022/10/30 05:30:37;;;;;;;23.50;11.32;;;14.90;99.90;;;;;;5035368;28;20498;-83
2022/10/30 05:33:04;;;;;;;18.13;7.70;;;14.90;99.90;;;;;;5050582;28;20102;-83
2022/10/30 05:35:31;;;;;;;14.60;7.25;;;14.80;99.90;;;;;;5053151;28;20521;-83
2022/10/30 05:37:57;;;;;;;18.38;10.45;;;14.80;99.90;;;;;;5052005;28;20494;-83
2022/10/30 05:40:23;;;;;;;18.38;11.45;;;14.80;99.90;;;;;;5051785;28;20032;-83
2022/10/30 05:42:49;;;;;;;19.67;10.88;;;14.80;99.90;;;;;;5051858;28;20123;-83
2022/10/30 05:45:15;;;;;;;15.98;7.72;;;14.80;99.90;;;;;;5050962;28;20441;-83
2022/10/30 05:47:42;;;;;;;15.50;7.55;;;14.80;99.90;;;;;;5034445;28;20041;-83
2022/10/30 05:50:08;;;;;;;17.65;11.95;;;14.70;99.90;;;;;;5034135;28;20037;-83
2022/10/30 05:52:34;;;;;;;19.95;12.02;;;14.70;99.90;;;;;;5051174;28;20091;-83
2022/10/30 05:54:59;;;;;;;16.73;7.43;;;14.80;99.90;;;;;;5034529;28;20041;-83
2022/10/30 05:57:31;;;;;;;21.67;12.10;;;14.70;99.90;;;;;;5051288;28;20086;-83
2022/10/30 05:59:56;;;;;;;20.13;12.20;;;14.70;99.90;;;;;;5034408;28;20040;-83
2022/10/30 06:02:22;;;;;;;15.73;7.70;;;14.70;99.90;;;;;;5050577;28;20062;-83
2022/10/30 06:04:47;;;;;;;13.45;6.30;;;14.60;99.90;;;;;;5034801;28;20087;-83
2022/10/30 06:07:13;;;;;;;18.40;7.35;;;14.50;99.90;;;;;;5050905;28;20501;-83
2022/10/30 06:09:38;;;;;;;19.88;11.90;;;14.50;99.90;;;;;;5051397;28;20037;-83
2022/10/30 06:12:04;;;;;;;18.92;8.65;;;14.50;99.90;;;;;;5050955;28;20573;-83
2022/10/30 06:14:30;;;;;;;17.80;8.07;;;14.50;99.90;;;;;;5049946;28;20124;-83
2022/10/30 06:16:55;;;;;;;23.40;12.10;;;14.50;99.90;;;;;;5051070;28;20119;-83
2022/10/30 06:19:21;;;;;;;20.15;12.98;;;14.50;99.90;;;;;;5049641;28;20402;-82
2022/10/30 06:21:47;;;;;;;15.57;8.23;;;14.50;99.90;;;;;;5049057;28;20037;-83
2022/10/30 06:24:13;;;;;;;19.98;7.82;;;14.50;99.90;;;;;;5049361;28;20080;-83
2022/10/30 06:26:39;;;;;;;19.08;12.10;;;14.40;99.90;;;;;;5048759;28;20072;-83
2022/10/30 06:29:04;;;;;;;19.75;13.35;;;14.50;99.90;;;;;;5050223;28;20052;-83
2022/10/30 06:31:30;;;;;;;24.63;12.95;;;14.50;99.90;;;;;;5049508;28;20541;-83
2022/10/30 06:33:56;;;;;;;20.40;12.95;;;14.50;99.90;;;;;;5050030;28;20045;-83
2022/10/30 06:36:21;;;;;;;21.08;8.20;;;14.50;99.90;;;;;;5033266;28;20501;-83
2022/10/30 06:38:47;;;;;;;15.35;7.97;;;14.40;99.90;;;;;;5048877;28;20075;-83
2022/10/30 06:41:12;;;;;;;17.38;8.00;;;14.40;99.90;;;;;;5049847;28;20453;-83
2022/10/30 06:43:38;;;;;;;20.40;11.93;;;14.30;99.90;;;;;;5049069;28;20157;-83
2022/10/30 06:46:04;;;;;;;21.02;12.68;;;14.40;99.90;;;;;;5033431;28;20037;-83
2022/10/30 06:48:29;;;;;;;20.90;12.23;;;14.40;99.90;;;;;;5050245;28;20044;-83
2022/10/30 06:50:59;;;;;;;17.40;8.70;;;14.50;99.90;;;;;;5032422;28;20580;-83
2022/10/30 06:53:25;;;;;;;19.20;8.15;;;14.40;99.90;;;;;;5049432;28;20037;-83
2022/10/30 06:56:02;;;;;;;13.98;7.45;;;14.30;99.90;;;;;;5049108;28;20090;-83
2022/10/30 06:58:28;;;;;;;19.67;8.38;;;14.30;99.90;;;;;;5048733;28;20037;-83
2022/10/30 07:00:54;;;;;;;23.70;12.45;;;14.30;99.90;;;;;;5049369;28;20028;-83
2022/10/30 07:03:20;;;;;;;17.75;9.00;;;14.30;99.90;;;;;;5048137;28;20175;-83
2022/10/30 07:05:45;;;;;;;18.05;11.95;;;14.30;99.90;;;;;;5048550;28;20504;-83
2022/10/30 07:08:11;;;;;;;23.65;12.90;;;14.30;99.90;;;;;;5031535;28;20512;-83
2022/10/30 07:10:37;;;;;;;17.00;9.20;;;14.40;99.90;;;;;;5049644;28;20040;-83
2022/10/30 07:13:02;;;;;;;18.45;8.88;;;14.40;99.90;;;;;;5049689;28;20064;-83
2022/10/30 07:15:28;;;;;;;18.23;11.90;;;14.40;99.90;;;;;;5048434;28;20037;-83
2022/10/30 07:17:55;;;;;;;19.58;8.88;;;14.40;99.90;;;;;;5050109;28;20071;-83
2022/10/30 07:20:21;;;;;;;23.48;13.32;;;14.50;99.90;;;;;;5031177;28;20040;-83
2022/10/30 07:22:46;;;;;;;19.60;13.23;;;14.50;99.90;;;;;;5049377;28;20037;-83
2022/10/30 07:25:12;;;;;;;24.33;13.98;;;14.60;99.90;;;;;;5031485;28;20584;-83
2022/10/30 07:27:43;;;;;;;24.85;13.68;;;14.60;99.90;;;;;;5047744;28;20067;-83
2022/10/30 07:30:10;;;;;;;17.92;8.73;;;14.60;99.90;;;;;;5032812;28;20041;-83
2022/10/30 07:32:35;;;;;;;20.85;13.45;;;14.60;99.90;;;;;;5048020;28;20494;-83
2022/10/30 07:35:01;;;;;;;21.05;13.63;;;14.60;99.90;;;;;;5032276;28;20036;-83
2022/10/30 07:37:28;;;;;;;20.10;9.55;;;14.70;99.90;;;;;;5031078;28;20048;-83
2022/10/30 07:39:54;;;;;;;20.23;9.00;;;14.60;99.90;;;;;;5048579;28;20402;-83
2022/10/30 07:42:19;;;;;;;20.35;13.23;;;14.60;99.90;;;;;;5049152;28;20041;-83
2022/10/30 07:44:45;;;;;;;21.20;13.32;;;14.60;99.90;;;;;;5047383;28;20506;-83
2022/10/30 07:47:10;;;;;;;17.85;8.93;;;14.70;99.90;;;;;;5048486;28;20463;-83
2022/10/30 07:49:36;;;;;;;22.38;14.65;;;14.70;99.90;;;;;;5048888;28;20277;-83
2022/10/30 07:52:02;;;;;;;17.50;9.77;;;14.70;99.90;;;;;;5047573;28;20783;-83
2022/10/30 07:54:27;;;;;;;24.98;14.32;;;14.70;99.90;;;;;;5048281;28;20470;-83
2022/10/30 07:56:53;;;;;;;21.85;13.57;;;14.80;99.90;;;;;;5048050;28;20029;-83
2022/10/30 07:59:18;;;;;;;17.55;12.93;;;14.80;99.90;;;;;;5031243;28;20040;-83
2022/10/30 08:01:44;;;;;;;22.02;14.75;;;14.80;99.90;;;;;;5048117;28;20508;-83
2022/10/30 08:04:12;;;;;;;21.40;14.45;;;14.90;99.90;;;;;;5046781;28;20119;-83
2022/10/30 08:06:38;;;;;;;19.67;14.38;;;14.90;99.90;;;;;;5049472;28;20405;-83
2022/10/30 08:09:04;;;;;;;25.42;14.55;;;15.00;99.90;;;;;;5047382;28;20490;-83
2022/10/30 08:11:29;;;;;;;21.58;9.52;;;15.00;99.90;;;;;;5051370;28;20052;-83
2022/10/30 08:13:55;;;;;;;22.88;15.32;;;14.90;99.90;;;;;;5051445;28;20095;-83
2022/10/30 08:16:21;;;;;;;22.63;14.63;;;15.00;99.90;;;;;;5052627;28;20254;-83
2022/10/30 08:18:46;;;;;;;22.17;9.80;;;15.10;99.90;;;;;;5052912;28;20523;-83
2022/10/30 08:21:12;;;;;;;18.15;10.13;;;15.10;99.90;;;;;;5052043;28;20444;-83
2022/10/30 08:23:37;;;;;;;21.20;10.85;;;15.00;99.90;;;;;;5051676;28;20048;-83
2022/10/30 08:26:04;;;;;;;25.85;15.45;;;15.10;99.90;;;;;;5051409;28;20117;-83
2022/10/30 08:28:30;;;;;;;22.23;14.63;;;15.10;99.90;;;;;;5051891;28;20743;-83
2022/10/30 08:30:57;;;;;;;22.27;10.02;;;15.20;99.90;;;;;;5053548;28;20551;-83
2022/10/30 08:33:23;;;;;;;17.08;9.95;;;15.20;99.90;;;;;;5035143;28;20072;-83
2022/10/30 08:35:50;;;;;;;23.23;16.20;;;15.20;99.90;;;;;;5050706;28;20068;-83
2022/10/30 08:38:16;;;;;;;22.90;17.23;;;15.30;99.90;;;;;;5052652;28;20068;-84
2022/10/30 08:40:42;;;;;;;20.85;15.18;;;15.40;99.90;;;;;;5050672;28;20567;-83
2022/10/30 08:43:08;;;;;;;21.40;11.70;;;15.40;99.90;;;;;;5050777;28;20123;-83
2022/10/30 08:45:34;;;;;;;21.85;15.75;;;15.40;99.90;;;;;;5050498;28;20037;-83
2022/10/30 08:48:02;;;;;;;24.60;16.05;;;15.50;99.90;;;;;;5050616;28;20037;-83
2022/10/30 08:50:28;;;;;;;21.33;16.88;;;15.60;99.90;;;;;;5034957;28;20080;-83
2022/10/30 08:52:53;;;;;;;30.15;16.50;;;15.60;99.90;;;;;;5050778;28;20076;-83
2022/10/30 08:55:19;;;;;;;25.50;16.23;;;15.70;99.90;;;;;;5034865;28;20144;-83
2022/10/30 08:57:45;;;;;;;22.30;14.95;;;15.80;99.90;;;;;;5051439;28;20036;-83
2022/10/30 09:00:11;;;;;;;21.15;16.33;;;15.80;99.90;;;;;;5034307;28;20033;-83
2022/10/30 09:02:39;;;;;;;21.52;17.38;;;15.90;99.90;;;;;;5052281;28;20045;-83
2022/10/30 09:05:06;;;;;;;22.75;16.35;;;15.90;99.90;;;;;;5033754;28;20148;-83
2022/10/30 09:07:32;;;;;;;18.95;11.32;;;16.00;99.90;;;;;;5034979;28;20087;-84
2022/10/30 09:09:58;;;;;;;25.15;16.77;;;16.00;99.90;;;;;;5051510;28;20055;-83
2022/10/30 09:12:23;;;;;;;24.23;16.42;;;16.10;99.90;;;;;;5051575;28;20487;-84
2022/10/30 09:14:49;;;;;;;23.00;16.60;;;16.20;99.90;;;;;;5051224;28;20037;-83
2022/10/30 09:17:14;;;;;;;25.80;16.30;;;16.30;99.90;;;;;;5034525;28;20372;-83
2022/10/30 09:19:43;;;;;;;24.08;15.88;;;16.30;99.90;;;;;;5049775;28;20469;-84
2022/10/30 09:22:09;;;;;;;25.42;16.15;;;16.40;99.90;;;;;;5033787;28;20055;-83
2022/10/30 09:24:34;;;;;;;21.88;16.13;;;16.50;99.90;;;;;;5051700;28;20514;-83
2022/10/30 09:27:00;;;;;;;23.98;12.80;;;16.60;99.90;;;;;;5034410;28;20822;-84
2022/10/30 09:29:30;;;;;;;24.73;17.00;;;16.60;99.90;;;;;;5034696;28;20090;-84
2022/10/30 09:31:56;;;;;;;21.95;17.42;;;16.60;99.90;;;;;;5052395;28;20056;-83
2022/10/30 09:34:22;;;;;;;22.75;16.63;;;16.80;99.90;;;;;;5049940;28;20037;-83
2022/10/30 09:36:48;;;;;;;21.33;16.33;;;16.80;99.90;;;;;;5051063;28;20060;-83
2022/10/30 09:39:14;;;;;;;25.98;17.15;;;16.90;99.90;;;;;;5051387;28;20037;-84
2022/10/30 09:41:51;;;;;;;26.45;17.40;;;17.00;99.90;;;;;;5051708;28;20040;-83
2022/10/30 09:44:59;;;;;;;25.55;17.05;;;17.10;99.90;;;;;;5034367;28;20072;-83
2022/10/30 09:47:33;;;;;;;23.10;17.55;;;17.10;99.90;;;;;;5050319;28;20044;-83
2022/10/30 09:50:10;;;;;;;27.50;17.98;;;17.20;99.90;;;;;;5052048;28;20048;-83
2022/10/30 09:52:50;;;;;;;24.73;18.33;;;17.30;99.90;;;;;;5054686;28;20041;-84
2022/10/30 09:55:39;;;;;;;24.42;18.10;;;17.40;99.90;;;;;;5015293;28;20129;-83
2022/10/30 09:58:23;;;;;;;23.58;16.90;;;17.50;99.90;;;;;;5018167;28;20064;-84
2022/10/30 10:01:12;;;;;;;24.70;18.10;;;17.60;99.90;;;;;;5048841;28;20091;-84
2022/10/30 10:03:44;;;;;;;22.95;13.23;;;17.70;99.90;;;;;;5050264;28;20044;-84
2022/10/30 10:06:19;;;;;;;24.98;18.90;;;17.70;99.90;;;;;;5047967;28;20044;-84
2022/10/30 10:08:58;;;;;;;22.58;17.35;;;17.80;99.90;;;;;;5034240;28;20513;-84
2022/10/30 10:11:34;;;;;;;26.05;17.75;;;17.90;99.90;;;;;;5050141;28;20033;-84
2022/10/30 10:14:11;;;;;;;21.52;17.65;;;18.00;99.90;;;;;;5050337;28;20052;-83
2022/10/30 10:16:39;;;;;;;24.83;17.48;;;18.00;99.90;;;;;;5034784;28;20191;-84
2022/10/30 10:19:10;;;;;;;26.77;17.50;;;18.10;99.90;;;;;;5049089;28;20033;-84
2022/10/30 10:21:44;;;;;;;23.58;17.20;;;18.20;99.90;;;;;;5049894;28;20040;-84
2022/10/30 10:24:23;;;;;;;25.70;18.02;;;18.30;99.90;;;;;;5032537;28;20040;-84
2022/10/30 10:26:58;;;;;;;22.38;17.77;;;18.40;99.90;;;;;;5014485;28;20063;-84
2022/10/30 10:29:40;;;;;;;25.08;16.92;;;18.40;99.90;;;;;;5012045;28;20041;-83
2022/10/30 10:32:25;;;;;;;24.95;17.58;;;18.60;99.90;;;;;;5041173;28;20162;-84
2022/10/30 10:35:16;;;;;;;23.25;16.10;;;18.70;99.90;;;;;;5047610;28;20052;-84
2022/10/30 10:38:06;;;;;;;24.30;17.05;;;18.80;99.90;;;;;;5030826;28;20516;-84
2022/10/30 10:40:59;;;;;;;22.27;17.48;;;18.90;99.90;;;;;;5028215;28;20152;-84
2022/10/30 10:43:39;;;;;;;22.48;17.23;;;19.10;99.90;;;;;;5019551;28;20048;-83
2022/10/30 10:46:27;;;;;;;22.70;16.85;;;19.20;99.90;;;;;;5012759;28;20041;-84
2022/10/30 10:49:19;;;;;;;23.42;16.70;;;19.40;99.90;;;;;;5037508;28;20070;-84
2022/10/30 10:51:53;;;;;;;24.43;17.27;;;19.50;99.90;;;;;;5049955;28;20060;-84
2022/10/30 10:54:28;;;;;;;24.85;16.27;;;19.50;99.90;;;;;;5049690;28;20045;-84
2022/10/30 10:56:54;;;;;;;24.38;17.00;;;19.70;99.90;;;;;;5050004;28;20399;-84
2022/10/30 10:59:35;;;;;;;24.30;16.83;;;19.80;99.90;;;;;;5049385;28;20033;-84
2022/10/30 11:02:04;;;;;;;26.95;17.17;;;19.90;99.90;;;;;;5048590;28;20497;-84
2022/10/30 11:04:40;;;;;;;22.80;15.70;;;20.00;99.90;;;;;;5051361;28;20048;-83
2022/10/30 11:07:20;;;;;;;22.42;16.55;;;20.10;99.90;;;;;;5050941;28;20041;-84
2022/10/30 11:09:51;;;;;;;23.80;17.35;;;20.20;99.90;;;;;;5032368;28;20041;-84
2022/10/30 11:12:21;;;;;;;25.02;16.83;;;20.30;99.90;;;;;;5049719;28;20637;-84
2022/10/30 11:14:47;;;;;;;23.08;16.08;;;20.40;99.90;;;;;;5048202;28;20048;-84
2022/10/30 11:17:52;;;;;;;23.23;15.85;;;20.50;99.90;;;;;;5050269;28;20036;-83
2022/10/30 11:20:27;;;;;;;22.95;15.05;;;20.60;99.90;;;;;;5024894;28;20056;-84
2022/10/30 11:22:52;;;;;;;23.58;15.52;;;20.70;99.90;;;;;;5032050;28;20037;-84
2022/10/30 11:25:24;;;;;;;19.95;14.70;;;20.80;99.90;;;;;;5048975;28;20044;-84
2022/10/30 11:28:02;;;;;;;22.90;15.55;;;20.90;99.90;;;;;;5012484;28;20052;-84
2022/10/30 11:30:28;;;;;;;22.35;14.60;;;20.90;99.90;;;;;;5036254;28;20501;-84
2022/10/30 11:32:54;;;;;;;22.63;14.88;;;21.10;99.90;;;;;;5048697;28;20044;-84
2022/10/30 11:35:21;;;;;;;23.23;14.45;;;21.10;99.90;;;;;;5048664;28;20041;-84
2022/10/30 11:38:17;;;;;;;22.45;14.68;;;21.20;99.90;;;;;;5048406;28;20048;-84
2022/10/30 11:40:47;;;;;;;25.60;14.85;;;21.20;99.90;;;;;;5049184;28;20048;-84
2022/10/30 11:43:17;;;;;;;22.70;14.40;;;21.30;99.90;;;;;;5048944;28;20029;-84
2022/10/30 11:45:43;;;;;;;25.00;15.07;;;21.40;99.90;;;;;;5048874;28;20124;-84
2022/10/30 11:48:19;;;;;;;24.45;14.15;;;21.40;99.90;;;;;;5031981;28;20045;-84
2022/10/30 11:50:47;;;;;;;23.00;14.63;;;21.50;99.90;;;;;;5042146;28;20410;-84
2022/10/30 11:53:29;;;;;;;21.40;14.60;;;21.60;99.90;;;;;;5028787;28;20629;-84
2022/10/30 11:55:56;;;;;;;21.17;14.13;;;21.70;99.90;;;;;;5032854;28;20111;-84
2022/10/30 11:58:28;;;;;;;23.00;13.70;;;21.80;99.90;;;;;;5049488;28;20037;-84
2022/10/30 12:01:05;;;;;;;22.88;14.23;;;21.90;99.90;;;;;;5049797;28;20132;-84
2022/10/30 12:03:37;;;;;;;22.15;13.82;;;22.00;99.90;;;;;;5053581;28;20894;-84
2022/10/30 12:06:10;;;;;;;21.65;14.35;;;22.10;99.90;;;;;;5045489;28;20076;-84
2022/10/30 12:08:36;;;;;;;22.58;14.23;;;22.20;99.90;;;;;;5044710;28;20046;-84
2022/10/30 12:11:04;;;;;;;22.85;13.98;;;22.40;99.90;;;;;;5062482;28;20041;-84
2022/10/30 12:13:38;;;;;;;22.02;13.02;;;22.50;99.90;;;;;;5025116;28;20048;-84
2022/10/30 12:16:17;;;;;;;18.35;13.23;;;22.60;99.90;;;;;;5048372;28;20557;-84
2022/10/30 12:19:14;;;;;;;21.60;14.27;;;22.70;99.90;;;;;;5047739;28;20029;-84
2022/10/30 12:21:46;;;;;;;24.05;13.15;;;22.80;99.90;;;;;;5032060;28;20619;-84
2022/10/30 12:24:35;;;;;;;20.20;13.35;;;23.00;99.90;;;;;;5046843;28;20047;-84
2022/10/30 12:27:04;;;;;;;20.33;12.57;;;23.20;99.90;;;;;;5048393;28;20619;-84
2022/10/30 12:29:51;;;;;;;18.73;12.43;;;23.40;99.90;;;;;;5030740;28;20052;-84
2022/10/30 12:32:20;;;;;;;19.63;12.65;;;23.50;99.90;;;;;;5031163;28;20064;-84
2022/10/30 12:34:56;;;;;;;22.13;12.48;;;23.60;99.90;;;;;;5049373;28;20090;-84
2022/10/30 12:37:37;;;;;;;18.60;12.05;;;23.50;99.30;;;;;;5029014;28;20041;-84
2022/10/30 12:40:22;;;;;;;23.50;13.10;;;23.30;99.70;;;;;;5015914;28;20088;-84
2022/10/30 12:43:14;;;;;;;21.17;12.70;;;23.10;99.90;;;;;;5062556;28;20046;-83